Time;durP1;ratioP1;P1;durP2;ratioP2;P2;SDS_P1;SDS_P2;PMS_P1;PMS_P2;Temp;Humidity;BMP_temperature;BMP_pressure;BME280_temperature;BME280_humidity;BME280_pressure;Samples;Min_cycle;Max_cycle;Signal;HPM_P1;HPM_P2
2023/12/15 00:00:40;;;;;;;10.93;6.80;;;2.60;1.00;;;;;;5062811;28;20227;-74
2023/12/15 00:03:09;;;;;;;10.40;7.17;;;2.80;1.00;;;;;;5064428;28;20319;-75
2023/12/15 00:05:39;;;;;;;10.23;6.60;;;2.70;1.00;;;;;;5069516;28;20231;-74
2023/12/15 00:08:07;;;;;;;8.50;6.00;;;2.80;1.00;;;;;;5064015;28;20307;-74
2023/12/15 00:10:36;;;;;;;8.77;6.27;;;2.80;1.00;;;;;;5060687;28;20228;-75
2023/12/15 00:13:04;;;;;;;8.73;6.50;;;2.80;1.00;;;;;;5067669;28;20256;-76
2023/12/15 00:15:32;;;;;;;8.10;5.50;;;2.70;1.00;;;;;;5064728;28;20959;-75
2023/12/15 00:18:01;;;;;;;8.53;6.23;;;2.60;1.00;;;;;;5063782;28;20248;-77
2023/12/15 00:20:29;;;;;;;7.83;5.47;;;2.60;1.00;;;;;;5066664;28;20228;-76
2023/12/15 00:22:59;;;;;;;7.93;5.27;;;2.60;1.00;;;;;;5066523;28;20300;-76
2023/12/15 00:25:28;;;;;;;6.83;4.80;;;2.40;1.00;;;;;;5066028;28;20228;-76
2023/12/15 00:27:57;;;;;;;7.03;5.20;;;2.50;1.00;;;;;;5067887;28;20224;-74
2023/12/15 00:30:26;;;;;;;6.67;4.67;;;2.60;1.00;;;;;;5072413;28;20216;-75
2023/12/15 00:32:55;;;;;;;7.10;5.27;;;2.50;1.00;;;;;;5071002;28;20236;-75
2023/12/15 00:35:24;;;;;;;7.30;5.30;;;2.70;1.00;;;;;;5067401;28;20250;-74
2023/12/15 00:37:53;;;;;;;6.70;4.80;;;2.60;1.00;;;;;;5060629;28;20221;-73
2023/12/15 00:40:27;;;;;;;8.40;5.00;;;2.50;1.00;;;;;;5064884;28;20277;-75
2023/12/15 00:42:59;;;;;;;7.97;5.40;;;2.70;1.00;;;;;;5066365;28;20216;-74
2023/12/15 00:45:31;;;;;;;7.30;5.17;;;2.70;1.00;;;;;;5061381;28;20233;-72
2023/12/15 00:48:00;;;;;;;9.97;5.37;;;2.60;1.00;;;;;;5064818;28;20219;-75
2023/12/15 00:50:29;;;;;;;8.27;5.40;;;2.70;1.00;;;;;;5059626;28;20247;-73
2023/12/15 00:52:58;;;;;;;8.43;6.07;;;2.80;1.00;;;;;;5061931;28;20254;-73
2023/12/15 00:55:29;;;;;;;9.80;6.87;;;2.80;1.00;;;;;;5057308;28;20679;-73
2023/12/15 00:57:56;;;;;;;10.00;7.23;;;2.90;1.00;;;;;;5039619;28;20224;-73
2023/12/15 01:00:25;;;;;;;10.37;7.87;;;2.80;1.00;;;;;;5060100;28;20216;-73
2023/12/15 01:02:53;;;;;;;9.97;7.67;;;2.80;1.00;;;;;;5059442;28;20223;-73
2023/12/15 01:05:22;;;;;;;12.43;8.53;;;2.80;1.00;;;;;;5056948;28;20224;-74
2023/12/15 01:07:51;;;;;;;17.43;9.83;;;2.90;1.00;;;;;;5061758;28;20231;-74
2023/12/15 01:10:20;;;;;;;16.47;11.13;;;3.00;1.00;;;;;;5065245;28;20228;-74
2023/12/15 01:12:49;;;;;;;17.50;12.30;;;3.00;1.00;;;;;;5062130;28;20338;-73
2023/12/15 01:15:18;;;;;;;21.73;13.80;;;3.10;1.00;;;;;;5055407;28;20228;-71
2023/12/15 01:17:46;;;;;;;19.47;13.40;;;3.20;1.00;;;;;;5061617;28;20239;-71
2023/12/15 01:20:16;;;;;;;19.53;13.77;;;3.10;1.00;;;;;;5060113;28;20312;-71
2023/12/15 01:22:48;;;;;;;17.63;11.53;;;3.10;1.00;;;;;;5062106;28;20233;-72
2023/12/15 01:25:16;;;;;;;19.60;11.43;;;3.00;1.00;;;;;;5073242;28;20298;-72
2023/12/15 01:27:50;;;;;;;17.67;10.70;;;3.10;1.00;;;;;;5066279;28;20228;-73
2023/12/15 01:30:18;;;;;;;15.10;9.93;;;3.10;1.00;;;;;;5070584;28;20737;-73
2023/12/15 01:32:47;;;;;;;15.03;9.63;;;3.20;1.00;;;;;;5063236;28;20869;-74
2023/12/15 01:35:16;;;;;;;14.00;9.63;;;3.10;1.00;;;;;;5064193;28;20248;-74
2023/12/15 01:37:45;;;;;;;15.30;9.80;;;3.10;1.00;;;;;;5067558;28;20230;-74
2023/12/15 01:40:14;;;;;;;13.47;9.30;;;3.10;1.00;;;;;;5060799;28;20213;-74
2023/12/15 01:42:42;;;;;;;15.40;10.43;;;3.30;1.00;;;;;;5068419;28;20768;-75
2023/12/15 01:45:12;;;;;;;14.27;9.67;;;3.20;1.00;;;;;;5060772;28;20615;-73
2023/12/15 01:47:41;;;;;;;14.17;9.83;;;3.20;1.00;;;;;;5061729;28;20354;-73
2023/12/15 01:50:11;;;;;;;16.30;10.43;;;3.10;1.00;;;;;;5064400;28;20569;-74
2023/12/15 01:52:39;;;;;;;12.73;9.17;;;3.00;1.00;;;;;;5059829;28;20311;-74
2023/12/15 01:55:08;;;;;;;18.77;11.57;;;3.10;1.00;;;;;;5065374;28;20231;-75
2023/12/15 01:57:37;;;;;;;18.40;10.97;;;3.10;1.00;;;;;;5062093;28;20306;-74
2023/12/15 02:00:08;;;;;;;19.30;11.57;;;3.00;1.00;;;;;;5057837;28;20266;-74
2023/12/15 02:02:41;;;;;;;21.90;12.80;;;3.00;1.00;;;;;;5062535;28;20255;-74
2023/12/15 02:05:09;;;;;;;16.03;11.07;;;3.10;1.00;;;;;;5057640;28;20227;-74
2023/12/15 02:07:40;;;;;;;15.17;10.10;;;3.10;1.00;;;;;;5060076;28;20216;-73
2023/12/15 02:10:08;;;;;;;17.53;10.53;;;3.10;1.00;;;;;;5056765;28;20314;-73
2023/12/15 02:12:37;;;;;;;17.33;10.90;;;3.20;1.00;;;;;;5060588;28;20212;-74
2023/12/15 02:15:08;;;;;;;20.20;10.17;;;3.20;1.00;;;;;;5065617;28;20518;-74
2023/12/15 02:17:37;;;;;;;15.43;10.77;;;3.30;1.00;;;;;;5064169;28;20229;-75
2023/12/15 02:20:09;;;;;;;14.97;9.80;;;3.20;1.00;;;;;;5068829;28;20228;-72
2023/12/15 02:22:39;;;;;;;15.60;9.90;;;3.30;1.00;;;;;;5064390;28;20228;-73
2023/12/15 02:25:08;;;;;;;14.20;9.77;;;3.40;1.00;;;;;;5061359;28;20230;-73
2023/12/15 02:27:36;;;;;;;14.80;9.73;;;3.40;1.00;;;;;;5065406;28;20239;-73
2023/12/15 02:30:06;;;;;;;15.43;9.83;;;3.40;1.00;;;;;;5065165;28;20224;-73
2023/12/15 02:32:35;;;;;;;16.53;10.63;;;3.30;1.00;;;;;;5063325;28;20285;-73
2023/12/15 02:35:04;;;;;;;15.43;9.80;;;3.30;1.00;;;;;;5063141;28;20290;-74
2023/12/15 02:37:32;;;;;;;14.07;9.40;;;3.30;1.00;;;;;;5061236;28;20224;-74
2023/12/15 02:40:03;;;;;;;14.73;9.43;;;3.30;1.00;;;;;;5058186;28;20232;-72
2023/12/15 02:42:32;;;;;;;13.53;9.77;;;3.30;1.00;;;;;;5063433;28;20271;-73
2023/12/15 02:45:01;;;;;;;16.03;10.50;;;3.10;1.00;;;;;;5064733;28;20208;-74
2023/12/15 02:47:30;;;;;;;16.60;10.37;;;3.20;1.00;;;;;;5062071;28;20239;-73
2023/12/15 02:49:59;;;;;;;15.40;10.57;;;3.10;1.00;;;;;;5063583;28;20280;-73
2023/12/15 02:52:27;;;;;;;15.67;10.20;;;3.10;1.00;;;;;;5062977;28;20238;-72
2023/12/15 02:54:56;;;;;;;15.33;9.93;;;3.20;1.00;;;;;;5062818;28;20243;-73
2023/12/15 02:57:27;;;;;;;14.73;9.97;;;3.10;1.00;;;;;;5057873;28;20234;-73
2023/12/15 02:59:55;;;;;;;14.90;9.97;;;3.20;1.00;;;;;;5052984;28;20311;-74
2023/12/15 03:02:24;;;;;;;16.50;9.93;;;3.20;1.00;;;;;;5063419;28;20309;-73
2023/12/15 03:04:52;;;;;;;16.17;9.77;;;3.10;1.00;;;;;;5068464;28;20320;-74
2023/12/15 03:07:21;;;;;;;14.30;9.73;;;3.30;1.00;;;;;;5059256;28;20288;-73
2023/12/15 03:09:49;;;;;;;15.50;9.37;;;3.40;1.00;;;;;;5060948;28;20495;-73
2023/12/15 03:12:18;;;;;;;13.90;9.50;;;3.30;1.00;;;;;;5062994;28;20346;-73
2023/12/15 03:14:49;;;;;;;16.03;9.33;;;3.20;1.00;;;;;;5063451;28;20270;-73
2023/12/15 03:17:17;;;;;;;18.13;10.30;;;3.10;1.00;;;;;;5061201;28;20240;-73
2023/12/15 03:19:46;;;;;;;11.97;8.80;;;3.10;1.00;;;;;;5066525;28;20331;-73
2023/12/15 03:22:14;;;;;;;15.97;10.20;;;3.30;1.00;;;;;;5064454;28;20239;-73
2023/12/15 03:24:45;;;;;;;15.33;10.20;;;3.30;1.00;;;;;;5063846;28;20403;-73
2023/12/15 03:27:14;;;;;;;18.47;10.90;;;3.20;1.00;;;;;;5058622;28;20302;-74
2023/12/15 03:29:44;;;;;;;16.90;10.27;;;3.20;1.00;;;;;;5055579;28;20228;-73
2023/12/15 03:32:15;;;;;;;17.43;10.03;;;3.10;1.00;;;;;;5062309;28;20238;-73
2023/12/15 03:34:43;;;;;;;14.90;10.13;;;3.30;1.00;;;;;;5057437;28;20268;-72
2023/12/15 03:37:12;;;;;;;15.63;10.50;;;3.30;1.00;;;;;;5061558;28;20237;-72
2023/12/15 03:39:41;;;;;;;15.93;10.47;;;3.20;1.00;;;;;;5060350;28;20223;-72
2023/12/15 03:42:09;;;;;;;16.93;11.27;;;3.20;1.00;;;;;;5060650;28;20293;-72
2023/12/15 03:44:39;;;;;;;15.63;10.03;;;3.30;1.00;;;;;;5051622;28;20230;-73
2023/12/15 03:47:08;;;;;;;14.53;10.30;;;3.30;1.00;;;;;;5053502;28;20220;-72
2023/12/15 03:49:39;;;;;;;17.10;10.57;;;3.30;1.00;;;;;;5056087;28;20327;-72
2023/12/15 03:52:07;;;;;;;14.67;9.70;;;3.30;1.00;;;;;;5061356;28;20249;-71
2023/12/15 03:54:36;;;;;;;16.50;9.80;;;3.20;1.00;;;;;;5060937;28;20216;-73
2023/12/15 03:57:05;;;;;;;14.97;9.57;;;3.20;1.00;;;;;;5061527;28;20303;-72
2023/12/15 03:59:33;;;;;;;14.50;9.70;;;3.30;1.00;;;;;;5055826;28;20227;-75
2023/12/15 04:02:02;;;;;;;15.00;9.93;;;3.30;1.00;;;;;;5058517;28;20236;-74
2023/12/15 04:04:30;;;;;;;15.30;9.70;;;3.30;1.00;;;;;;5056699;28;20219;-75
2023/12/15 04:07:00;;;;;;;13.93;9.43;;;3.40;1.00;;;;;;5063965;28;20224;-74
2023/12/15 04:09:29;;;;;;;14.53;9.47;;;3.40;1.00;;;;;;5056054;28;20388;-74
2023/12/15 04:11:58;;;;;;;15.13;9.70;;;3.40;1.00;;;;;;5062569;28;20256;-73
2023/12/15 04:14:26;;;;;;;15.10;9.83;;;3.40;1.00;;;;;;5060241;28;20227;-73
2023/12/15 04:16:55;;;;;;;14.47;9.60;;;3.30;1.00;;;;;;5077518;28;20237;-74
2023/12/15 04:19:23;;;;;;;15.47;9.70;;;3.40;1.00;;;;;;5057959;28;20216;-74
2023/12/15 04:21:52;;;;;;;17.60;10.37;;;3.40;1.00;;;;;;5062968;28;20228;-74
2023/12/15 04:24:22;;;;;;;19.07;10.87;;;3.40;1.00;;;;;;5059998;28;20216;-75
2023/12/15 04:26:50;;;;;;;18.63;10.27;;;3.50;1.00;;;;;;5062146;28;20283;-74
2023/12/15 04:29:19;;;;;;;15.50;9.90;;;3.40;1.00;;;;;;5057627;28;20228;-74
2023/12/15 04:31:47;;;;;;;17.17;10.70;;;3.40;1.00;;;;;;5060401;28;20324;-75
2023/12/15 04:34:16;;;;;;;14.03;10.13;;;3.40;1.00;;;;;;5060218;28;20228;-74
2023/12/15 04:36:45;;;;;;;17.67;11.67;;;3.50;1.00;;;;;;5064161;28;20255;-74
2023/12/15 04:39:13;;;;;;;16.97;11.03;;;3.40;1.00;;;;;;5063096;28;20248;-75
2023/12/15 04:41:46;;;;;;;18.77;10.80;;;3.30;1.00;;;;;;5064833;28;20212;-74
2023/12/15 04:44:14;;;;;;;18.03;11.10;;;3.30;1.00;;;;;;5063771;28;20221;-74
2023/12/15 04:46:42;;;;;;;19.93;12.23;;;3.30;1.00;;;;;;5061209;28;20295;-74
2023/12/15 04:49:12;;;;;;;17.40;11.23;;;3.50;1.00;;;;;;5052799;28;20216;-73
2023/12/15 04:51:40;;;;;;;16.80;11.13;;;3.40;1.00;;;;;;5057608;28;20927;-74
2023/12/15 04:54:09;;;;;;;15.87;10.83;;;3.40;1.00;;;;;;5056009;28;20259;-75
2023/12/15 04:56:38;;;;;;;18.53;12.53;;;3.50;1.00;;;;;;5064862;28;20233;-74
2023/12/15 04:59:07;;;;;;;18.03;11.90;;;3.40;1.00;;;;;;5063700;28;20236;-75
2023/12/15 05:01:36;;;;;;;24.03;11.97;;;3.40;1.00;;;;;;5056051;28;20302;-73
2023/12/15 05:04:04;;;;;;;21.57;12.40;;;3.30;1.00;;;;;;5066048;28;20723;-73
2023/12/15 05:06:34;;;;;;;20.03;12.53;;;3.40;1.00;;;;;;5061032;28;20235;-74
2023/12/15 05:09:04;;;;;;;21.70;12.60;;;3.30;1.00;;;;;;5049263;28;20224;-74
2023/12/15 05:11:35;;;;;;;18.87;11.90;;;3.40;1.00;;;;;;5058146;28;20315;-74
2023/12/15 05:14:03;;;;;;;15.67;10.90;;;3.40;1.00;;;;;;5060979;28;20311;-74
2023/12/15 05:16:33;;;;;;;15.80;9.80;;;3.50;1.00;;;;;;5061674;28;20261;-74
2023/12/15 05:19:02;;;;;;;17.27;11.60;;;3.50;1.00;;;;;;5075369;28;20222;-74
2023/12/15 05:21:30;;;;;;;17.77;11.13;;;3.50;1.00;;;;;;5066855;28;20224;-74
2023/12/15 05:23:59;;;;;;;17.03;10.90;;;3.50;1.00;;;;;;5066154;28;20270;-73
2023/12/15 05:26:28;;;;;;;20.47;11.93;;;3.50;1.00;;;;;;5065581;28;20224;-74
2023/12/15 05:28:58;;;;;;;23.73;12.80;;;3.40;1.00;;;;;;5064034;28;20235;-74
2023/12/15 05:31:27;;;;;;;20.17;12.27;;;3.50;1.00;;;;;;5063014;28;20243;-74
2023/12/15 05:33:56;;;;;;;19.17;11.17;;;3.50;1.00;;;;;;5057164;28;20282;-74
2023/12/15 05:36:25;;;;;;;20.10;11.70;;;3.50;1.00;;;;;;5061866;28;20232;-75
2023/12/15 05:38:54;;;;;;;19.27;12.17;;;3.40;1.00;;;;;;5077604;27;20790;-74
2023/12/15 05:41:23;;;;;;;19.67;12.43;;;3.40;1.00;;;;;;5058084;28;20825;-75
2023/12/15 05:43:51;;;;;;;21.00;12.37;;;3.30;1.00;;;;;;5053912;28;20284;-74
2023/12/15 05:46:20;;;;;;;21.63;13.10;;;3.40;1.00;;;;;;5062183;28;20829;-75
2023/12/15 05:48:49;;;;;;;16.73;11.10;;;3.40;1.00;;;;;;5057557;28;20220;-75
2023/12/15 05:51:19;;;;;;;20.23;11.60;;;3.30;1.00;;;;;;5061351;28;20682;-75
2023/12/15 05:53:47;;;;;;;16.93;10.97;;;3.40;1.00;;;;;;5060868;28;20307;-75
2023/12/15 05:56:25;;;;;;;17.67;11.93;;;3.40;1.00;;;;;;5060138;28;20714;-75
2023/12/15 05:58:53;;;;;;;17.73;11.33;;;3.50;1.00;;;;;;5059555;28;20228;-74
2023/12/15 06:01:22;;;;;;;22.97;12.40;;;3.50;1.00;;;;;;5064902;28;20282;-74
2023/12/15 06:03:50;;;;;;;20.97;12.87;;;3.50;1.00;;;;;;5066754;28;20220;-72
2023/12/15 06:06:20;;;;;;;24.03;11.93;;;3.50;1.00;;;;;;5059747;28;20485;-72
2023/12/15 06:08:49;;;;;;;21.40;11.87;;;3.60;1.00;;;;;;5057628;28;20237;-74
2023/12/15 06:11:18;;;;;;;18.27;11.27;;;3.60;1.00;;;;;;5059792;28;20239;-74
2023/12/15 06:13:47;;;;;;;20.30;12.07;;;3.70;1.00;;;;;;5065408;27;20242;-73
2023/12/15 06:16:19;;;;;;;20.73;12.57;;;3.50;1.00;;;;;;5059837;28;20225;-72
2023/12/15 06:18:48;;;;;;;24.73;13.07;;;3.60;1.00;;;;;;5060855;28;20730;-72
2023/12/15 06:21:25;;;;;;;18.27;12.00;;;3.50;1.00;;;;;;5065122;28;20277;-72
2023/12/15 06:23:54;;;;;;;21.43;12.97;;;3.50;1.00;;;;;;5063703;28;20223;-73
2023/12/15 06:26:24;;;;;;;24.70;15.30;;;3.60;1.00;;;;;;5064582;28;20234;-71
2023/12/15 06:28:54;;;;;;;19.73;13.53;;;3.60;1.00;;;;;;5069219;28;20318;-73
2023/12/15 06:31:25;;;;;;;19.80;11.80;;;3.60;1.00;;;;;;5065218;28;20286;-70
2023/12/15 06:33:54;;;;;;;21.33;12.50;;;3.70;1.00;;;;;;5060638;28;20220;-74
2023/12/15 06:36:26;;;;;;;21.83;12.87;;;3.50;1.00;;;;;;5059108;28;20224;-73
2023/12/15 06:38:58;;;;;;;19.27;12.33;;;3.70;1.00;;;;;;5064805;28;20251;-72
2023/12/15 06:41:27;;;;;;;22.80;14.63;;;3.60;1.00;;;;;;5059260;28;20224;-72
2023/12/15 06:43:55;;;;;;;21.47;13.60;;;3.60;1.00;;;;;;5063174;28;20220;-71
2023/12/15 06:46:24;;;;;;;20.17;12.10;;;3.60;1.00;;;;;;5060376;28;20227;-72
2023/12/15 06:48:53;;;;;;;19.27;12.00;;;3.60;1.00;;;;;;5074292;28;20221;-72
2023/12/15 06:51:21;;;;;;;23.63;12.23;;;3.70;1.00;;;;;;5062485;28;20224;-72
2023/12/15 06:53:51;;;;;;;22.77;12.63;;;3.70;1.00;;;;;;5064953;28;20224;-73
2023/12/15 06:56:20;;;;;;;23.53;12.77;;;3.60;1.00;;;;;;5063958;28;20319;-72
2023/12/15 06:58:48;;;;;;;19.97;13.57;;;3.70;1.00;;;;;;5060601;28;20248;-74
2023/12/15 07:01:18;;;;;;;23.43;14.03;;;3.70;1.00;;;;;;5061872;28;20315;-71
2023/12/15 07:03:48;;;;;;;23.47;14.20;;;3.70;1.00;;;;;;5062017;28;20228;-74
2023/12/15 07:06:18;;;;;;;24.43;14.27;;;3.70;1.00;;;;;;5064383;28;20224;-72
2023/12/15 07:08:50;;;;;;;24.27;15.10;;;3.70;1.00;;;;;;5060641;28;20259;-73
2023/12/15 07:11:20;;;;;;;23.43;13.93;;;3.70;1.00;;;;;;5057287;28;20224;-72
2023/12/15 07:13:48;;;;;;;23.23;14.47;;;3.70;1.00;;;;;;5054858;28;20731;-74
2023/12/15 07:16:17;;;;;;;21.67;14.10;;;3.70;1.00;;;;;;5059320;28;20239;-73
2023/12/15 07:18:46;;;;;;;26.60;14.40;;;3.80;1.00;;;;;;5058342;28;20234;-73
2023/12/15 07:21:15;;;;;;;29.00;15.73;;;3.80;1.00;;;;;;5060269;28;20277;-72
2023/12/15 07:23:44;;;;;;;25.07;15.13;;;3.70;1.00;;;;;;5064609;28;20215;-72
2023/12/15 07:26:12;;;;;;;24.10;14.67;;;3.80;1.00;;;;;;5056435;28;20303;-72
2023/12/15 07:28:42;;;;;;;23.97;14.93;;;3.90;1.00;;;;;;5063407;28;20689;-71
2023/12/15 07:31:11;;;;;;;24.07;14.83;;;3.90;1.00;;;;;;5065757;28;20236;-73
2023/12/15 07:33:40;;;;;;;26.13;14.50;;;3.80;1.00;;;;;;5062910;28;20244;-73
2023/12/15 07:36:10;;;;;;;23.40;13.67;;;3.70;1.00;;;;;;5059807;28;20224;-72
2023/12/15 07:38:39;;;;;;;24.17;14.73;;;3.80;1.00;;;;;;5073689;28;20307;-72
2023/12/15 07:41:08;;;;;;;22.67;13.80;;;3.80;1.00;;;;;;5059131;28;20232;-72
2023/12/15 07:43:38;;;;;;;26.70;14.93;;;3.70;1.00;;;;;;5055880;28;20224;-71
2023/12/15 07:46:16;;;;;;;24.27;15.07;;;3.80;1.00;;;;;;5056608;28;20224;-72
2023/12/15 07:48:51;;;;;;;23.80;14.67;;;3.80;1.00;;;;;;5058507;28;20238;-73
2023/12/15 07:51:20;;;;;;;20.53;13.67;;;3.80;1.00;;;;;;5057994;28;20376;-73
2023/12/15 07:53:50;;;;;;;29.33;14.20;;;3.80;1.00;;;;;;5058404;28;20223;-73
2023/12/15 07:56:22;;;;;;;22.87;14.00;;;3.90;1.00;;;;;;5043806;28;20220;-73
2023/12/15 07:58:51;;;;;;;26.73;14.80;;;3.90;1.00;;;;;;5057132;28;20307;-73
2023/12/15 08:01:22;;;;;;;25.90;15.90;;;3.90;1.00;;;;;;5058708;28;20216;-73
2023/12/15 08:03:51;;;;;;;22.43;14.87;;;4.00;1.00;;;;;;5054292;28;21927;-74
2023/12/15 08:06:20;;;;;;;23.47;15.10;;;4.10;1.00;;;;;;5058837;28;20305;-74
2023/12/15 08:08:49;;;;;;;24.53;15.37;;;4.00;1.00;;;;;;5061229;28;20220;-75
2023/12/15 08:11:17;;;;;;;26.70;15.33;;;4.00;1.00;;;;;;5065095;28;20225;-74
2023/12/15 08:13:46;;;;;;;22.60;14.60;;;4.00;1.00;;;;;;5061999;28;20299;-74
2023/12/15 08:16:15;;;;;;;25.00;15.13;;;3.90;1.00;;;;;;5064718;28;20572;-73
2023/12/15 08:18:45;;;;;;;30.40;18.83;;;3.80;1.00;;;;;;5064043;28;20305;-72
2023/12/15 08:21:14;;;;;;;31.67;18.33;;;3.80;1.00;;;;;;5069944;28;20770;-73
2023/12/15 08:23:42;;;;;;;27.93;15.73;;;3.90;1.00;;;;;;5060868;28;20220;-77
2023/12/15 08:26:20;;;;;;;25.40;15.70;;;3.90;1.00;;;;;;5058115;28;20731;-74
2023/12/15 08:28:49;;;;;;;26.97;16.07;;;3.90;1.00;;;;;;5065917;28;20292;-76
2023/12/15 08:31:17;;;;;;;24.17;15.87;;;3.80;1.00;;;;;;5059358;28;20221;-76
2023/12/15 08:33:48;;;;;;;28.33;16.67;;;3.70;1.00;;;;;;5057060;28;20223;-77
2023/12/15 08:36:16;;;;;;;29.40;16.60;;;3.70;1.00;;;;;;5065379;28;20226;-75
2023/12/15 08:38:48;;;;;;;29.33;17.17;;;3.70;1.00;;;;;;5058941;28;20279;-76
2023/12/15 08:41:16;;;;;;;26.67;16.90;;;3.70;1.00;;;;;;5063905;28;20232;-77
2023/12/15 08:43:45;;;;;;;26.93;17.37;;;3.70;1.00;;;;;;5059041;28;20662;-78
2023/12/15 08:46:14;;;;;;;32.07;18.97;;;3.70;1.00;;;;;;5063952;28;20262;-77
2023/12/15 08:48:42;;;;;;;33.17;20.07;;;3.70;1.00;;;;;;5066664;28;20228;-77
2023/12/15 08:51:13;;;;;;;32.30;19.70;;;3.70;1.00;;;;;;5065127;28;20231;-77
2023/12/15 08:53:42;;;;;;;36.37;19.63;;;3.60;1.00;;;;;;5061614;28;20230;-78
2023/12/15 08:56:13;;;;;;;31.13;19.57;;;3.80;1.00;;;;;;5061627;28;20234;-77
2023/12/15 08:58:41;;;;;;;35.90;21.30;;;3.70;1.00;;;;;;5093307;28;20317;-77
2023/12/15 09:01:11;;;;;;;33.47;21.00;;;3.70;1.00;;;;;;5068575;28;20513;-77
2023/12/15 09:03:39;;;;;;;34.53;20.80;;;3.80;1.00;;;;;;5056195;28;20223;-77
2023/12/15 09:06:11;;;;;;;36.83;21.40;;;3.80;1.00;;;;;;5064400;28;20247;-77
2023/12/15 09:08:57;;;;;;;39.90;24.53;;;3.70;1.00;;;;;;5060579;28;20235;-77
2023/12/15 09:11:26;;;;;;;37.97;22.50;;;3.80;1.00;;;;;;5058558;28;20712;-78
2023/12/15 09:13:55;;;;;;;34.43;21.53;;;3.80;1.00;;;;;;5078215;28;20213;-78
2023/12/15 09:16:24;;;;;;;35.07;20.83;;;3.90;1.00;;;;;;5062829;28;20297;-77
2023/12/15 09:18:52;;;;;;;34.57;21.07;;;4.00;1.00;;;;;;5064987;28;20231;-77
2023/12/15 09:21:21;;;;;;;37.73;21.23;;;4.00;1.00;;;;;;5060655;28;20248;-76
2023/12/15 09:23:50;;;;;;;34.33;21.77;;;4.10;1.00;;;;;;5063695;28;20610;-77
2023/12/15 09:26:20;;;;;;;34.70;20.47;;;4.20;1.00;;;;;;5061409;28;20264;-75
2023/12/15 09:28:48;;;;;;;36.23;21.53;;;4.30;1.00;;;;;;5060502;28;20263;-75
2023/12/15 09:31:17;;;;;;;32.33;20.63;;;4.30;1.00;;;;;;5060162;28;20213;-73
2023/12/15 09:33:46;;;;;;;33.20;20.40;;;4.50;1.00;;;;;;5058742;28;20300;-74
2023/12/15 09:36:15;;;;;;;34.53;21.23;;;4.40;1.00;;;;;;5067227;28;20766;-73
2023/12/15 09:38:44;;;;;;;34.57;20.73;;;4.30;1.00;;;;;;5057770;28;20763;-74
2023/12/15 09:41:14;;;;;;;33.07;20.97;;;4.30;1.00;;;;;;5061212;28;20220;-74
2023/12/15 09:43:44;;;;;;;33.13;21.10;;;4.30;1.00;;;;;;5073157;28;20241;-76
2023/12/15 09:46:13;;;;;;;38.97;22.83;;;4.20;1.00;;;;;;5062778;28;20228;-72
2023/12/15 09:48:42;;;;;;;37.33;22.87;;;4.30;1.00;;;;;;5062768;28;20227;-73
2023/12/15 09:51:19;;;;;;;36.77;22.47;;;4.30;1.00;;;;;;5061778;28;20286;-73
2023/12/15 09:53:48;;;;;;;36.23;22.37;;;4.40;1.00;;;;;;5066389;28;20221;-73
2023/12/15 09:56:17;;;;;;;33.83;21.37;;;4.30;1.00;;;;;;5098068;28;20228;-72
2023/12/15 09:58:47;;;;;;;35.47;21.83;;;4.30;1.00;;;;;;5068127;28;20221;-76
2023/12/15 10:01:16;;;;;;;34.33;21.27;;;4.30;1.00;;;;;;5060827;28;20217;-75
2023/12/15 10:03:45;;;;;;;32.70;20.13;;;4.30;1.00;;;;;;5060512;28;20230;-75
2023/12/15 10:06:14;;;;;;;34.10;21.47;;;4.30;1.00;;;;;;5063323;28;20220;-74
2023/12/15 10:08:45;;;;;;;31.07;20.73;;;4.40;1.00;;;;;;5061137;28;20222;-76
2023/12/15 10:11:33;;;;;;;31.80;19.57;;;4.40;1.00;;;;;;5088745;28;20232;-76
2023/12/15 10:14:07;;;;;;;35.17;21.43;;;4.50;1.00;;;;;;5055644;28;20231;-77
2023/12/15 10:16:36;;;;;;;32.67;20.63;;;4.60;1.00;;;;;;5058237;28;20228;-76
2023/12/15 10:19:06;;;;;;;34.80;20.50;;;4.80;1.00;;;;;;5056484;28;20252;-77
2023/12/15 10:21:36;;;;;;;36.97;22.80;;;4.70;1.00;;;;;;5063217;28;20229;-78
2023/12/15 10:24:20;;;;;;;32.67;20.70;;;4.60;1.00;;;;;;5063051;28;20627;-77
2023/12/15 10:26:49;;;;;;;35.17;21.50;;;4.50;1.00;;;;;;5050669;28;20266;-77
2023/12/15 10:29:20;;;;;;;38.20;22.40;;;4.60;1.00;;;;;;5058208;28;20220;-78
2023/12/15 10:31:51;;;;;;;35.73;21.20;;;4.50;1.00;;;;;;5056116;28;20251;-77
2023/12/15 10:34:22;;;;;;;32.23;20.50;;;4.50;1.00;;;;;;5058443;28;20718;-76
2023/12/15 10:36:51;;;;;;;38.77;22.33;;;4.60;1.00;;;;;;5061905;28;20722;-75
2023/12/15 10:39:22;;;;;;;38.30;22.13;;;4.50;1.00;;;;;;5053898;28;20281;-76
2023/12/15 10:41:52;;;;;;;34.47;22.07;;;4.60;1.00;;;;;;5063304;28;20641;-79
2023/12/15 10:44:25;;;;;;;33.57;22.17;;;4.60;1.00;;;;;;5056935;28;20217;-74
2023/12/15 10:46:53;;;;;;;41.63;24.67;;;4.50;1.00;;;;;;5060559;28;20314;-75
2023/12/15 10:49:24;;;;;;;37.33;23.90;;;4.40;1.00;;;;;;5060698;28;20311;-77
2023/12/15 10:51:58;;;;;;;39.40;22.77;;;4.50;1.00;;;;;;5058351;28;20491;-72
2023/12/15 10:54:32;;;;;;;34.37;23.07;;;4.60;1.00;;;;;;5062016;28;20220;-75
2023/12/15 10:57:02;;;;;;;39.10;23.17;;;4.60;1.00;;;;;;5064547;28;20234;-76
2023/12/15 10:59:32;;;;;;;37.93;22.93;;;4.50;1.00;;;;;;5064411;28;20239;-75
2023/12/15 11:02:01;;;;;;;39.17;22.83;;;4.50;1.00;;;;;;5060383;28;20221;-75
2023/12/15 11:04:29;;;;;;;38.43;22.27;;;4.60;1.00;;;;;;5062157;28;20376;-76
2023/12/15 11:06:59;;;;;;;36.53;22.37;;;4.60;1.00;;;;;;5062879;28;20319;-76
2023/12/15 11:09:30;;;;;;;37.37;22.13;;;4.60;1.00;;;;;;5064547;28;20224;-75
2023/12/15 11:12:23;;;;;;;40.23;22.43;;;4.70;1.00;;;;;;5058826;28;20224;-75
2023/12/15 11:14:55;;;;;;;33.57;21.43;;;4.70;1.00;;;;;;5060244;28;20244;-76
2023/12/15 11:17:25;;;;;;;37.80;21.50;;;4.80;1.00;;;;;;5062913;28;20232;-74
2023/12/15 11:19:59;;;;;;;32.77;20.83;;;4.80;1.00;;;;;;5061359;28;20228;-75
2023/12/15 11:22:29;;;;;;;35.23;21.43;;;4.80;1.00;;;;;;5058524;28;20227;-75
2023/12/15 11:24:58;;;;;;;37.90;21.33;;;4.90;1.00;;;;;;5060920;28;20225;-73
2023/12/15 11:27:26;;;;;;;31.17;20.17;;;4.90;1.00;;;;;;5063292;28;20369;-73
2023/12/15 11:29:57;;;;;;;33.80;20.43;;;4.80;1.00;;;;;;5060913;28;20219;-75
2023/12/15 11:32:29;;;;;;;37.53;21.30;;;4.70;1.00;;;;;;5054019;28;20637;-73
2023/12/15 11:34:58;;;;;;;30.60;20.43;;;4.80;1.00;;;;;;5065596;28;21017;-73
2023/12/15 11:37:28;;;;;;;36.60;20.87;;;4.80;1.00;;;;;;5061339;28;20228;-74
2023/12/15 11:40:00;;;;;;;31.57;19.93;;;4.90;1.00;;;;;;5062522;28;20307;-75
2023/12/15 11:42:29;;;;;;;32.80;20.87;;;5.00;1.00;;;;;;5058196;28;20285;-74
2023/12/15 11:45:00;;;;;;;36.30;21.47;;;5.00;1.00;;;;;;5063958;28;20220;-73
2023/12/15 11:47:30;;;;;;;33.27;19.97;;;5.00;1.00;;;;;;5068564;28;20241;-74
2023/12/15 11:50:04;;;;;;;30.27;19.63;;;5.00;1.00;;;;;;5063238;28;20228;-71
2023/12/15 11:52:32;;;;;;;32.13;19.50;;;4.80;1.00;;;;;;5072903;28;20220;-73
2023/12/15 11:55:01;;;;;;;34.03;21.57;;;4.80;1.00;;;;;;5066951;28;20226;-73
2023/12/15 11:57:29;;;;;;;34.53;20.67;;;4.80;1.00;;;;;;5067986;28;20224;-74
2023/12/15 12:00:00;;;;;;;34.33;21.43;;;4.90;1.00;;;;;;5066661;28;20234;-74
2023/12/15 12:02:30;;;;;;;31.43;20.50;;;5.00;1.00;;;;;;5064467;28;20244;-76
2023/12/15 12:04:59;;;;;;;33.97;20.83;;;5.10;1.00;;;;;;5060347;28;20228;-74
2023/12/15 12:07:28;;;;;;;34.67;22.17;;;5.00;1.00;;;;;;5065839;28;20224;-76
2023/12/15 12:09:57;;;;;;;36.17;20.83;;;5.00;1.00;;;;;;5066998;28;20220;-73
2023/12/15 12:12:27;;;;;;;41.23;22.00;;;5.00;1.00;;;;;;5066697;28;20231;-74
2023/12/15 12:15:05;;;;;;;34.13;22.70;;;5.10;1.00;;;;;;5063634;28;20794;-74
2023/12/15 12:17:34;;;;;;;37.43;22.60;;;5.00;1.00;;;;;;5061622;28;20779;-74
2023/12/15 12:20:06;;;;;;;36.57;22.57;;;5.00;1.00;;;;;;5066212;28;20603;-75
2023/12/15 12:22:36;;;;;;;35.67;23.13;;;4.80;1.00;;;;;;5064504;28;20224;-75
2023/12/15 12:25:06;;;;;;;36.90;22.47;;;4.90;1.00;;;;;;5065256;28;20240;-76
2023/12/15 12:27:36;;;;;;;35.53;23.47;;;4.80;1.00;;;;;;5063916;28;20231;-75
2023/12/15 12:30:12;;;;;;;35.90;22.43;;;4.90;1.00;;;;;;5066308;28;20254;-76
2023/12/15 12:32:41;;;;;;;34.17;22.30;;;4.90;1.00;;;;;;5062329;28;20506;-75
2023/12/15 12:35:11;;;;;;;34.33;22.17;;;4.80;1.00;;;;;;5064195;28;20786;-76
2023/12/15 12:37:39;;;;;;;38.47;23.80;;;4.80;1.00;;;;;;5076854;28;20249;-77
2023/12/15 12:40:09;;;;;;;35.80;23.33;;;4.80;1.00;;;;;;5059456;28;20229;-76
2023/12/15 12:42:38;;;;;;;36.57;23.57;;;4.90;1.00;;;;;;5060299;28;20216;-78
2023/12/15 12:45:10;;;;;;;38.17;22.40;;;4.90;1.00;;;;;;5064488;28;20220;-73
2023/12/15 12:47:41;;;;;;;33.70;22.97;;;4.80;1.00;;;;;;5064760;28;20228;-74
2023/12/15 12:50:11;;;;;;;37.00;22.83;;;4.80;1.00;;;;;;5062582;28;20229;-76
2023/12/15 12:52:40;;;;;;;34.93;23.00;;;4.90;1.00;;;;;;5064929;28;20231;-74
2023/12/15 12:55:09;;;;;;;33.40;22.80;;;5.00;1.00;;;;;;5062763;28;20234;-73
2023/12/15 12:57:40;;;;;;;34.77;23.40;;;4.90;1.00;;;;;;5062946;28;20220;-75
2023/12/15 13:00:13;;;;;;;33.47;22.73;;;4.90;1.00;;;;;;5065396;28;20224;-78
2023/12/15 13:02:42;;;;;;;34.80;23.40;;;4.90;1.00;;;;;;5059603;28;20335;-75